Time;durP1;ratioP1;P1;durP2;ratioP2;P2;SDS_P1;SDS_P2;PMS_P1;PMS_P2;Temp;Humidity;BMP_temperature;BMP_pressure;BME280_temperature;BME280_humidity;BME280_pressure;Samples;Min_cycle;Max_cycle;Signal;HPM_P1;HPM_P2
2022/04/04 00:00:12;;;;;;;7.27;4.77;;;0.70;66.80;;;1.14;56.23;97968.47;4930097;29;20246;-40
2022/04/04 00:02:40;;;;;;;7.33;4.30;;;0.70;66.50;;;1.11;56.27;97966.88;4929368;29;20051;-40
2022/04/04 00:05:08;;;;;;;8.33;4.30;;;0.70;66.40;;;1.13;55.58;97964.16;4927808;29;20066;-40
2022/04/04 00:07:36;;;;;;;6.17;4.53;;;0.70;66.80;;;1.13;55.84;97972.88;4929616;29;20349;-40
2022/04/04 00:10:05;;;;;;;8.23;5.13;;;0.60;66.20;;;1.13;55.42;97966.78;4928711;29;20048;-40
2022/04/04 00:12:33;;;;;;;7.47;4.53;;;0.60;66.30;;;1.08;55.23;97959.19;4929092;29;20256;-40
2022/04/04 00:15:01;;;;;;;8.27;5.03;;;0.60;66.20;;;1.05;55.99;97958.53;4929557;29;20051;-40
2022/04/04 00:17:29;;;;;;;6.37;4.00;;;0.60;66.50;;;1.04;56.10;97964.72;4930381;29;20055;-40
2022/04/04 00:19:56;;;;;;;9.53;4.03;;;0.60;66.80;;;1.00;55.64;97963.22;4928725;29;20047;-40
2022/04/04 00:22:25;;;;;;;6.27;4.37;;;0.50;67.00;;;0.97;56.26;97962.47;4928884;29;20244;-40
2022/04/04 00:24:53;;;;;;;7.17;4.50;;;0.50;67.30;;;0.97;55.63;97959.03;4929365;29;20284;-40
2022/04/04 00:27:21;;;;;;;10.67;5.63;;;0.50;67.70;;;0.78;56.48;97967.16;4929587;29;20039;-40
2022/04/04 00:29:48;;;;;;;8.73;4.80;;;0.20;68.20;;;0.70;56.20;97961.50;4928834;29;20048;-40
2022/04/04 00:32:16;;;;;;;8.77;6.03;;;0.00;70.00;;;0.63;56.48;97961.03;4930237;29;20052;-40
2022/04/04 00:34:45;;;;;;;7.70;5.10;;;0.00;71.40;;;0.62;56.91;97964.63;4929264;29;20044;-40
2022/04/04 00:37:12;;;;;;;9.07;5.07;;;0.00;71.70;;;0.60;56.54;97966.44;4929309;29;20257;-41
2022/04/04 00:39:41;;;;;;;7.67;4.97;;;0.00;71.70;;;0.55;57.47;97961.50;4927885;29;20059;-40
2022/04/04 00:42:09;;;;;;;7.87;5.33;;;0.00;71.30;;;0.53;56.89;97962.53;4928606;29;20349;-40
2022/04/04 00:44:37;;;;;;;9.63;5.63;;;-0.10;72.20;;;0.50;57.28;97957.47;4928634;29;20361;-40
2022/04/04 00:47:04;;;;;;;8.17;5.00;;;-0.10;72.00;;;0.50;57.37;97962.69;4929619;29;20055;-40
2022/04/04 00:49:32;;;;;;;8.40;4.73;;;-0.10;72.20;;;0.46;57.40;97959.41;4928354;29;20062;-40
2022/04/04 00:52:01;;;;;;;7.33;4.47;;;-0.20;72.40;;;0.43;57.55;97954.38;4929295;29;20052;-40
2022/04/04 00:54:29;;;;;;;8.40;6.20;;;-0.20;72.40;;;0.41;57.83;97945.75;4927466;29;20044;-40
2022/04/04 00:56:57;;;;;;;6.80;4.67;;;-0.20;72.90;;;0.40;57.05;97967.63;4928705;29;20059;-40
2022/04/04 00:59:25;;;;;;;9.77;4.97;;;-0.20;71.30;;;0.32;57.00;97960.22;4929015;29;20052;-40
2022/04/04 01:01:54;;;;;;;13.23;5.77;;;-0.30;70.70;;;0.26;57.21;97962.38;4928262;29;20064;-40
2022/04/04 01:04:22;;;;;;;7.03;4.63;;;-0.40;72.20;;;0.26;57.21;97955.34;4929856;29;20052;-40
2022/04/04 01:06:51;;;;;;;8.17;4.97;;;-0.40;72.50;;;0.26;57.12;97957.13;4929484;29;20062;-40
2022/04/04 01:09:18;;;;;;;8.37;5.53;;;-0.30;72.20;;;0.10;57.17;97960.63;4928503;29;20346;-40
2022/04/04 01:12:08;;;;;;;6.33;4.80;;;-0.50;71.10;;;-0.13;57.64;97955.88;4928667;29;20056;-40
2022/04/04 01:14:38;;;;;;;8.33;5.17;;;-0.80;71.60;;;-0.08;58.07;97954.69;4929318;29;20047;-40
2022/04/04 01:17:08;;;;;;;6.97;4.23;;;-0.70;72.80;;;-0.03;58.24;97955.25;4932915;29;20069;-40
2022/04/04 01:19:36;;;;;;;7.47;4.83;;;-0.60;72.80;;;0.01;57.81;97949.84;4932443;29;20253;-42
2022/04/04 01:22:07;;;;;;;7.93;5.03;;;-0.60;72.70;;;0.02;57.62;97944.53;4932202;29;20386;-40
2022/04/04 01:24:38;;;;;;;6.50;4.40;;;-0.50;73.20;;;0.05;57.42;97936.47;4931426;29;20054;-40
2022/04/04 01:27:08;;;;;;;5.97;3.77;;;-0.50;71.90;;;0.08;57.17;97938.94;4947025;29;20056;-40
2022/04/04 01:29:38;;;;;;;6.03;3.23;;;-0.40;70.80;;;0.13;57.53;97938.66;4932157;29;20070;-40
2022/04/04 01:32:07;;;;;;;4.30;3.10;;;-0.30;68.60;;;0.16;56.41;97931.47;4931751;29;20066;-40
2022/04/04 01:34:36;;;;;;;6.40;2.97;;;-0.30;67.10;;;0.21;56.34;97925.13;4932578;29;20055;-40
2022/04/04 01:37:04;;;;;;;6.10;3.17;;;-0.20;65.80;;;0.26;56.36;97925.72;4932684;29;20060;-39
2022/04/04 01:39:32;;;;;;;5.40;2.80;;;-0.20;64.90;;;0.29;55.87;97918.53;4931829;29;20097;-40
2022/04/04 01:42:00;;;;;;;5.27;2.97;;;-0.10;63.80;;;0.35;55.59;97917.28;4931689;29;20055;-39
2022/04/04 01:44:28;;;;;;;6.33;3.43;;;0.00;63.50;;;0.37;55.69;97913.66;4932076;29;20064;-39
2022/04/04 01:46:56;;;;;;;4.73;3.00;;;0.00;62.50;;;0.39;55.29;97909.19;4932033;29;20055;-40
2022/04/04 01:49:24;;;;;;;3.97;2.43;;;0.00;62.40;;;0.42;55.27;97917.78;4945359;29;20056;-39
2022/04/04 01:51:52;;;;;;;4.30;2.80;;;0.00;61.90;;;0.45;54.28;97913.22;4931002;29;20261;-40
2022/04/04 01:54:20;;;;;;;5.00;2.57;;;0.00;61.80;;;0.46;54.21;97906.19;4930804;29;20051;-39
2022/04/04 01:56:48;;;;;;;3.30;2.40;;;0.10;61.60;;;0.47;54.74;97910.50;4932154;29;20089;-39
2022/04/04 01:59:15;;;;;;;5.17;2.70;;;0.00;61.90;;;0.48;54.70;97904.31;4932158;29;20568;-40
2022/04/04 02:01:44;;;;;;;4.73;3.07;;;0.00;61.90;;;0.48;54.02;97910.38;4930464;29;20371;-40
2022/04/04 02:04:13;;;;;;;4.17;2.80;;;0.00;62.20;;;0.49;54.19;97903.41;4933252;29;20051;-40
2022/04/04 02:06:41;;;;;;;3.80;3.00;;;0.00;62.40;;;0.50;54.13;97907.69;4931347;29;20062;-40
2022/04/04 02:09:09;;;;;;;8.60;3.73;;;0.00;62.90;;;0.47;54.45;97902.66;4931097;29;20375;-39
2022/04/04 02:11:37;;;;;;;5.20;3.10;;;0.00;62.70;;;0.45;54.42;97894.03;4931587;29;20058;-39
2022/04/04 02:14:04;;;;;;;4.87;3.07;;;0.00;62.10;;;0.42;54.39;97897.66;4931348;29;20056;-39
2022/04/04 02:16:32;;;;;;;8.20;3.10;;;-0.10;62.60;;;0.41;54.64;97888.13;4914645;29;20266;-39
2022/04/04 02:19:00;;;;;;;5.10;3.27;;;-0.10;61.90;;;0.37;53.74;97889.25;4930916;29;20064;-39
2022/04/04 02:21:28;;;;;;;4.80;3.20;;;-0.20;62.80;;;0.38;54.87;97890.91;4931663;29;20067;-40
2022/04/04 02:23:57;;;;;;;4.70;2.70;;;-0.10;63.10;;;0.37;54.43;97886.63;4930787;29;20063;-39
2022/04/04 02:26:24;;;;;;;4.33;2.80;;;-0.10;62.80;;;0.35;54.58;97885.84;4932157;29;20296;-39
2022/04/04 02:28:52;;;;;;;5.67;3.10;;;-0.20;62.50;;;0.31;54.74;97885.22;4931217;29;20064;-39
2022/04/04 02:31:20;;;;;;;5.53;3.80;;;-0.20;63.00;;;0.27;54.04;97888.97;4929981;29;20048;-39
2022/04/04 02:33:48;;;;;;;5.50;3.30;;;-0.30;62.80;;;0.26;54.48;97881.19;4931770;29;20414;-39
2022/04/04 02:36:16;;;;;;;4.60;2.97;;;-0.30;62.80;;;0.22;54.21;97883.13;4931150;29;20066;-40
2022/04/04 02:38:44;;;;;;;5.23;3.47;;;-0.30;62.80;;;0.24;54.61;97878.66;4931075;29;20237;-39
2022/04/04 02:41:13;;;;;;;5.77;3.10;;;-0.20;62.80;;;0.26;53.96;97878.56;4931435;29;20054;-39
2022/04/04 02:43:40;;;;;;;5.43;3.30;;;-0.20;62.10;;;0.25;53.88;97867.22;4931618;29;20086;-39
2022/04/04 02:46:11;;;;;;;7.00;4.07;;;-0.20;62.00;;;0.26;53.92;97878.56;4930901;29;20052;-40
2022/04/04 02:48:39;;;;;;;5.50;3.33;;;-0.20;62.10;;;0.23;54.02;97870.88;4930204;29;20039;-40
2022/04/04 02:51:07;;;;;;;6.90;3.80;;;-0.20;62.50;;;0.24;53.93;97870.78;4930269;29;20052;-39
2022/04/04 02:53:35;;;;;;;4.53;3.30;;;-0.20;61.90;;;0.26;54.70;97870.72;4931013;29;20505;-39
2022/04/04 02:58:50;;;;;;;5.67;4.40;;;-0.10;61.70;;;0.29;54.25;97867.91;4930770;29;20371;-39
2022/04/04 03:01:20;;;;;;;4.30;2.93;;;-0.10;61.10;;;0.26;53.75;97855.00;4930177;29;20060;-40
2022/04/04 03:03:48;;;;;;;5.17;3.23;;;-0.20;60.80;;;0.25;54.05;97855.91;4927356;29;20265;-39
2022/04/04 03:06:16;;;;;;;6.90;4.27;;;-0.20;61.40;;;0.23;53.80;97858.63;4931554;29;20052;-39
2022/04/04 03:08:44;;;;;;;5.60;3.40;;;-0.30;60.90;;;0.22;53.72;97856.97;4930397;29;20062;-40
2022/04/04 03:11:12;;;;;;;6.73;4.23;;;-0.20;61.10;;;0.22;53.82;97862.19;4930663;29;20055;-39
2022/04/04 03:13:41;;;;;;;4.37;3.43;;;-0.20;61.00;;;0.23;53.91;97868.25;4930436;29;20051;-39
2022/04/04 03:16:09;;;;;;;6.47;3.37;;;-0.20;61.10;;;0.17;52.97;97856.38;4930020;29;20055;-39
2022/04/04 03:18:37;;;;;;;3.53;2.43;;;-0.30;60.90;;;0.14;53.24;97860.03;4930134;29;20063;-39
2022/04/04 03:21:06;;;;;;;5.43;3.40;;;-0.30;61.00;;;0.15;52.80;97855.63;4929165;29;20240;-39
2022/04/04 03:23:39;;;;;;;5.50;2.90;;;-0.30;60.20;;;0.11;52.99;97864.59;4930270;29;20070;-39
2022/04/04 03:26:10;;;;;;;4.68;3.08;;;-0.30;60.60;;;0.13;53.87;97860.13;4930384;29;20063;-39
2022/04/04 03:28:39;;;;;;;4.87;2.63;;;-0.30;61.30;;;0.14;53.50;97864.44;4929198;29;20063;-39
2022/04/04 03:31:07;;;;;;;7.53;3.33;;;-0.30;60.60;;;0.12;53.49;97861.91;4930866;29;20052;-40
2022/04/04 03:33:37;;;;;;;4.10;2.90;;;-0.30;60.80;;;0.09;53.54;97850.75;4929155;29;20048;-40
2022/04/04 03:36:06;;;;;;;4.93;3.00;;;-0.40;60.70;;;0.06;52.71;97851.78;4929262;29;20065;-39
2022/04/04 03:38:34;;;;;;;5.10;3.13;;;-0.40;60.50;;;0.05;53.18;97855.31;4929679;29;20055;-39
2022/04/04 03:41:03;;;;;;;4.20;2.60;;;-0.30;60.50;;;0.06;52.88;97850.94;4913402;29;20064;-39
2022/04/04 03:43:31;;;;;;;5.83;2.70;;;-0.40;60.70;;;0.01;52.61;97850.38;4928422;29;20062;-39
2022/04/04 03:45:58;;;;;;;4.77;3.10;;;-0.40;58.90;;;-0.01;53.20;97858.31;4929269;29;20051;-39
2022/04/04 03:48:26;;;;;;;4.83;2.90;;;-0.50;60.70;;;-0.01;53.52;97853.91;4929056;29;20062;-39
2022/04/04 03:50:54;;;;;;;4.57;3.20;;;-0.50;60.70;;;-0.01;53.10;97855.69;4928066;29;20361;-39
2022/04/04 03:53:23;;;;;;;5.70;3.70;;;-0.50;60.50;;;-0.05;52.75;97856.81;4929161;29;20349;-39
2022/04/04 03:55:51;;;;;;;3.50;2.67;;;-0.50;60.70;;;-0.06;52.98;97860.34;4930415;29;20054;-39
2022/04/04 03:58:19;;;;;;;4.87;2.80;;;-0.50;60.90;;;-0.04;53.46;97861.09;4928840;29;20047;-39
2022/04/04 04:00:47;;;;;;;4.50;2.90;;;-0.50;61.50;;;-0.04;53.87;97854.09;4930070;29;20067;-39
2022/04/04 04:03:15;;;;;;;5.50;3.33;;;-0.50;60.90;;;-0.04;54.00;97845.41;4927640;29;20250;-39
2022/04/04 04:05:43;;;;;;;5.57;3.43;;;-0.50;61.00;;;-0.03;53.50;97849.72;4928739;29;20085;-39
2022/04/04 04:08:11;;;;;;;4.90;2.93;;;-0.50;61.40;;;-0.02;53.72;97844.38;4928895;29;20257;-39
2022/04/04 04:10:39;;;;;;;5.30;3.33;;;-0.40;61.30;;;-0.06;52.73;97844.66;4928912;29;20082;-39
2022/04/04 04:13:07;;;;;;;5.20;3.23;;;-0.50;60.60;;;-0.06;53.07;97837.66;4929682;29;20052;-39
2022/04/04 04:15:35;;;;;;;4.97;3.10;;;-0.50;61.20;;;-0.06;52.85;97837.66;4929688;29;20065;-39
2022/04/04 04:18:03;;;;;;;5.33;3.10;;;-0.50;61.00;;;-0.06;52.89;97828.94;4928590;29;20280;-39
2022/04/04 04:20:32;;;;;;;5.97;3.37;;;-0.50;61.20;;;-0.06;53.01;97828.94;4928110;29;20051;-39
2022/04/04 04:23:07;;;;;;;5.40;2.87;;;-0.50;61.30;;;-0.04;52.80;97830.56;4928322;29;20568;-39
2022/04/04 04:25:37;;;;;;;5.20;3.67;;;-0.50;61.00;;;-0.02;53.68;97826.06;4930058;29;20069;-39
2022/04/04 04:28:06;;;;;;;5.13;3.00;;;-0.40;60.60;;;0.01;52.83;97829.44;4928331;29;20048;-39
2022/04/04 04:30:34;;;;;;;6.33;3.70;;;-0.40;60.70;;;-0.01;52.57;97829.53;4927761;29;20058;-39
2022/04/04 04:33:03;;;;;;;4.83;4.00;;;-0.50;59.70;;;0.01;53.06;97829.44;4929122;29;20058;-39
2022/04/04 04:35:31;;;;;;;5.13;3.63;;;-0.50;59.90;;;-0.03;52.85;97823.53;4927029;29;20372;-40
2022/04/04 04:38:00;;;;;;;6.50;3.70;;;-0.50;60.70;;;-0.04;53.01;97825.31;4928703;29;20060;-39
2022/04/04 04:40:31;;;;;;;7.17;4.13;;;-0.50;60.60;;;-0.04;53.14;97825.31;4928377;29;20074;-39
2022/04/04 04:42:59;;;;;;;6.57;4.03;;;-0.50;60.70;;;-0.05;52.62;97822.78;4928864;29;20056;-40
2022/04/04 04:45:27;;;;;;;5.13;3.70;;;-0.50;60.00;;;-0.08;53.10;97821.19;4927753;29;20063;-39
2022/04/04 04:47:55;;;;;;;6.17;3.90;;;-0.50;60.70;;;-0.09;53.20;97824.72;4928154;29;20047;-40
2022/04/04 04:50:24;;;;;;;6.43;3.60;;;-0.50;61.20;;;-0.10;53.43;97830.06;4931250;29;20053;-40
2022/04/04 04:52:54;;;;;;;5.87;4.13;;;-0.60;60.80;;;-0.10;52.87;97828.28;4933264;29;20066;-39
2022/04/04 04:55:24;;;;;;;7.23;4.40;;;-0.50;61.50;;;-0.09;53.16;97823.91;4932705;29;20065;-39
2022/04/04 04:57:53;;;;;;;7.63;4.77;;;-0.50;60.50;;;-0.10;52.93;97822.19;4933138;29;20059;-39
2022/04/04 05:00:28;;;;;;;6.50;4.10;;;-0.50;60.00;;;-0.10;52.20;97822.19;4932362;29;20073;-39
2022/04/04 05:05:44;;;;;;;6.20;3.50;;;-0.50;59.20;;;-0.08;52.88;97817.72;4933116;29;20064;-40
2022/04/04 05:08:12;;;;;;;7.13;4.80;;;-0.40;59.30;;;-0.10;52.84;97816.97;4932882;29;20082;-40
2022/04/04 05:10:40;;;;;;;6.37;4.13;;;-0.40;59.00;;;-0.11;52.15;97815.31;4931213;29;20056;-40
2022/04/04 05:13:08;;;;;;;5.87;3.73;;;-0.40;59.00;;;-0.08;52.90;97815.09;4932312;29;20052;-40
2022/04/04 05:15:36;;;;;;;5.97;3.80;;;-0.40;59.50;;;-0.07;52.93;97808.94;4932611;29;20059;-39
2022/04/04 05:18:29;;;;;;;6.03;3.73;;;-0.40;59.80;;;-0.07;52.56;97814.19;4932033;29;20059;-40
2022/04/04 05:20:57;;;;;;;6.70;4.20;;;-0.40;58.70;;;-0.04;52.81;97819.22;4931659;29;20062;-40
2022/04/04 05:23:24;;;;;;;5.57;3.50;;;-0.30;59.20;;;-0.02;52.28;97817.34;4932861;29;20059;-41
2022/04/04 05:25:52;;;;;;;6.83;3.93;;;-0.30;59.70;;;-0.04;52.25;97817.47;4932726;29;20053;-41
2022/04/04 05:28:20;;;;;;;6.57;3.97;;;-0.30;59.80;;;-0.02;52.44;97814.72;4933044;29;20040;-40
2022/04/04 05:30:48;;;;;;;6.90;3.83;;;-0.30;59.70;;;0.00;52.73;97823.38;4932156;29;20048;-40
2022/04/04 05:33:16;;;;;;;8.13;4.33;;;-0.30;59.20;;;0.01;53.11;97814.56;4930797;29;20051;-39
2022/04/04 05:35:46;;;;;;;5.63;4.13;;;-0.30;59.50;;;0.03;53.00;97820.53;4945071;29;20077;-39
2022/04/04 05:38:14;;;;;;;5.30;4.07;;;-0.30;59.70;;;0.03;52.36;97815.31;4951354;29;20070;-40
2022/04/04 05:41:23;;;;;;;5.23;3.83;;;-0.30;58.80;;;0.02;52.77;97821.50;4950961;29;20127;-40
2022/04/04 05:43:51;;;;;;;5.27;4.00;;;-0.30;59.60;;;-0.06;52.49;97821.94;4951090;28;20094;-40
2022/04/04 05:46:19;;;;;;;8.43;4.33;;;-0.40;59.80;;;-0.03;52.33;97824.38;4951710;29;20070;-40
2022/04/04 05:48:47;;;;;;;6.70;3.97;;;-0.40;60.10;;;-0.04;52.98;97827.06;4950733;29;20053;-40
2022/04/04 05:51:16;;;;;;;5.53;3.90;;;-0.40;60.50;;;-0.02;53.41;97826.06;4950504;29;20051;-40
2022/04/04 05:53:45;;;;;;;9.20;4.83;;;-0.40;59.90;;;-0.01;53.51;97826.91;4950738;29;20063;-40
2022/04/04 05:56:13;;;;;;;7.60;4.90;;;-0.40;60.20;;;-0.01;53.11;97819.88;4949756;29;20356;-39
2022/04/04 05:58:41;;;;;;;6.33;4.40;;;-0.30;60.90;;;0.00;52.59;97818.13;4948722;29;20063;-40
2022/04/04 06:01:09;;;;;;;6.37;3.93;;;-0.30;60.60;;;0.02;53.06;97818.00;4948710;28;20050;-39
2022/04/04 06:03:37;;;;;;;8.27;5.47;;;-0.30;60.60;;;0.07;52.42;97815.97;4949350;29;20061;-40
2022/04/04 06:06:05;;;;;;;7.33;4.73;;;-0.30;60.40;;;0.07;52.91;97818.59;4950187;29;20069;-40
2022/04/04 06:08:32;;;;;;;7.87;5.00;;;-0.20;60.40;;;0.07;52.81;97810.75;4947554;29;20061;-40
2022/04/04 06:11:00;;;;;;;5.30;3.80;;;-0.20;60.80;;;0.07;52.42;97814.19;4950812;29;20047;-40
2022/04/04 06:13:28;;;;;;;6.03;4.17;;;-0.20;60.40;;;0.07;52.71;97814.19;4950364;28;20063;-40
2022/04/04 06:15:56;;;;;;;7.23;4.33;;;-0.20;60.10;;;0.10;53.30;97814.03;4948437;29;20238;-40
2022/04/04 06:18:24;;;;;;;5.80;3.97;;;-0.20;60.50;;;0.10;53.43;97813.19;4949343;29;20246;-40
2022/04/04 06:20:52;;;;;;;6.40;3.90;;;-0.20;60.60;;;0.12;53.10;97820.00;4949813;29;20055;-40
2022/04/04 06:23:22;;;;;;;8.13;4.47;;;-0.20;59.90;;;0.18;53.21;97810.94;4949424;29;20051;-40
2022/04/04 06:25:51;;;;;;;5.37;3.77;;;-0.10;60.00;;;0.22;53.36;97806.38;4950729;29;20077;-40
2022/04/04 06:28:19;;;;;;;8.20;4.10;;;0.00;60.20;;;0.25;53.37;97814.84;4949522;29;20051;-40
2022/04/04 06:30:49;;;;;;;6.67;4.20;;;0.00;60.20;;;0.27;52.51;97817.38;4950020;29;20051;-40
2022/04/04 06:33:16;;;;;;;6.07;4.23;;;0.00;60.40;;;0.31;52.47;97813.66;4949497;29;20051;-40
2022/04/04 06:35:47;;;;;;;7.43;3.97;;;0.00;59.90;;;0.36;52.71;97815.06;4949264;29;20055;-40
2022/04/04 06:38:18;;;;;;;5.77;4.03;;;0.10;60.40;;;0.31;51.54;97811.03;4950972;29;20051;-41
2022/04/04 06:40:49;;;;;;;6.13;3.97;;;0.10;59.40;;;0.40;53.21;97815.72;4949650;29;20356;-40
2022/04/04 06:43:17;;;;;;;7.73;3.67;;;0.20;59.60;;;0.44;52.80;97816.38;4949213;29;20332;-40
2022/04/04 06:45:46;;;;;;;7.10;4.50;;;0.30;59.80;;;0.53;53.40;97818.44;4947860;29;20069;-40
2022/04/04 06:48:39;;;;;;;5.70;4.20;;;0.40;59.70;;;0.54;51.64;97812.25;4950796;29;20059;-41
2022/04/04 06:51:09;;;;;;;5.00;4.00;;;0.40;58.20;;;0.63;52.98;97811.69;4947929;29;20253;-40
2022/04/04 06:53:37;;;;;;;7.93;4.87;;;0.40;59.70;;;0.65;52.47;97820.28;4950353;29;20057;-40
2022/04/04 06:56:06;;;;;;;7.20;4.13;;;0.50;58.50;;;0.72;53.31;97815.53;4950640;29;20058;-40
2022/04/04 06:58:35;;;;;;;7.03;4.03;;;0.50;59.80;;;0.77;53.08;97816.06;4949351;29;20059;-38
2022/04/04 07:01:03;;;;;;;7.90;4.33;;;0.60;59.50;;;0.76;52.49;97809.16;4948805;29;20066;-39
2022/04/04 07:03:31;;;;;;;6.60;4.63;;;0.60;58.90;;;0.81;52.53;97812.31;4949615;29;20069;-39
2022/04/04 07:05:59;;;;;;;7.70;3.80;;;0.60;60.10;;;0.87;53.47;97816.31;4949071;29;20574;-39
2022/04/04 07:08:28;;;;;;;6.53;4.00;;;0.70;59.80;;;0.88;53.02;97813.59;4946787;28;20131;-39
2022/04/04 07:10:56;;;;;;;7.17;4.40;;;0.70;59.90;;;0.91;52.98;97816.06;4947337;28;20069;-39
2022/04/04 07:13:24;;;;;;;6.43;4.27;;;0.70;59.90;;;0.95;53.02;97811.44;4948659;28;20046;-39
2022/04/04 07:15:51;;;;;;;7.63;4.80;;;0.80;59.50;;;0.96;52.74;97811.34;4949892;28;20054;-39
2022/04/04 07:18:19;;;;;;;6.70;4.67;;;0.80;59.60;;;1.00;52.84;97801.50;4946804;28;20252;-39
2022/04/04 07:20:47;;;;;;;6.83;4.50;;;0.80;60.40;;;1.02;52.97;97798.78;4957273;28;20051;-39
2022/04/04 07:23:16;;;;;;;8.10;4.00;;;0.80;60.10;;;1.08;52.89;97812.34;4959058;29;20059;-40
2022/04/04 07:25:45;;;;;;;7.87;4.53;;;0.90;60.60;;;1.09;52.91;97806.16;4960503;29;20271;-41
2022/04/04 07:28:14;;;;;;;5.77;4.10;;;0.90;59.80;;;1.14;53.16;97806.72;4960811;29;20051;-40
2022/04/04 07:30:43;;;;;;;8.10;4.60;;;1.00;59.60;;;1.17;53.01;97801.25;4957659;28;20057;-40
2022/04/04 07:33:15;;;;;;;7.60;4.40;;;1.00;59.40;;;1.17;53.08;97796.03;4958915;29;20058;-40
2022/04/04 07:35:45;;;;;;;6.40;4.63;;;1.00;59.80;;;1.21;53.00;97791.41;4958343;29;20233;-40
2022/04/04 07:38:13;;;;;;;8.00;3.93;;;1.10;59.30;;;1.25;53.01;97800.78;4958690;29;20043;-40
2022/04/04 07:40:41;;;;;;;7.37;5.17;;;1.10;59.70;;;1.27;52.40;97798.88;4957730;28;20073;-40
2022/04/04 07:43:10;;;;;;;7.30;4.40;;;1.10;59.80;;;1.32;53.19;97793.38;4957872;29;20049;-40
2022/04/04 07:45:38;;;;;;;6.30;4.47;;;1.10;59.70;;;1.27;51.90;97788.41;4958747;29;20051;-41
2022/04/04 07:48:11;;;;;;;9.07;4.70;;;1.10;58.50;;;1.33;52.48;97798.47;4959099;29;20349;-40
2022/04/04 07:50:41;;;;;;;5.80;4.20;;;1.20;58.60;;;1.42;52.46;97798.84;4958141;28;20043;-40
2022/04/04 07:53:10;;;;;;;6.40;4.30;;;1.20;59.50;;;1.45;53.11;97796.84;4960257;29;20047;-40
2022/04/04 07:55:37;;;;;;;10.20;4.80;;;1.30;59.80;;;1.52;52.91;97795.50;4958783;29;20069;-40
2022/04/04 07:58:06;;;;;;;5.60;4.37;;;1.40;60.10;;;1.54;52.40;97796.25;4959964;28;20066;-40
2022/04/04 08:00:34;;;;;;;8.07;6.03;;;1.40;58.20;;;1.58;53.02;97787.22;4958030;29;20061;-40
2022/04/04 08:03:04;;;;;;;6.77;4.17;;;1.50;58.80;;;1.66;53.12;97788.50;4959172;29;20055;-40
2022/04/04 08:05:32;;;;;;;8.27;5.23;;;1.60;59.40;;;1.71;52.98;97792.50;4958892;29;20066;-40
2022/04/04 08:08:00;;;;;;;8.97;4.77;;;1.60;59.30;;;1.79;52.50;97788.53;4953714;29;20052;-40
2022/04/04 08:10:28;;;;;;;7.97;4.90;;;1.60;59.20;;;1.83;52.76;97782.13;4957767;29;20043;-40
2022/04/04 08:12:55;;;;;;;8.30;6.27;;;1.70;59.30;;;1.88;52.55;97786.13;4951420;28;20050;-40
2022/04/04 08:15:23;;;;;;;5.50;4.63;;;1.80;58.40;;;1.93;52.67;97773.53;4945073;29;20053;-40
2022/04/04 08:17:56;;;;;;;6.65;4.50;;;1.90;58.10;;;1.98;52.03;97781.09;4951309;29;20605;-41
2022/04/04 08:20:24;;;;;;;8.63;4.87;;;1.90;57.70;;;2.05;51.44;97768.38;4945048;29;20063;-40
2022/04/04 08:22:52;;;;;;;5.90;4.60;;;2.00;57.80;;;2.13;52.95;97772.19;4949964;29;20371;-40
2022/04/04 08:25:20;;;;;;;6.60;5.10;;;2.10;58.70;;;2.18;52.06;97774.47;4952295;29;20111;-40
2022/04/04 08:27:48;;;;;;;7.00;4.60;;;2.10;58.30;;;2.23;51.98;97768.91;4951032;29;20260;-40
2022/04/04 08:30:18;;;;;;;7.10;4.33;;;2.10;57.70;;;2.23;52.13;97769.75;4951720;29;20084;-40
2022/04/04 08:32:46;;;;;;;6.90;4.83;;;2.10;57.80;;;2.28;51.38;97770.25;4948657;29;20467;-40
2022/04/04 08:35:15;;;;;;;7.50;5.00;;;2.20;57.50;;;2.34;51.83;97766.38;4949778;28;20065;-40
2022/04/04 08:37:45;;;;;;;6.50;4.77;;;2.20;57.90;;;2.36;51.08;97764.47;4952285;28;20059;-40
2022/04/04 08:40:15;;;;;;;8.70;5.23;;;2.30;57.20;;;2.43;52.03;97757.84;4947013;29;20063;-40
2022/04/04 08:42:42;;;;;;;7.63;5.00;;;2.40;56.90;;;2.50;52.34;97758.25;4949291;29;20059;-40
2022/04/04 08:45:11;;;;;;;7.10;5.07;;;2.40;58.20;;;2.56;51.57;97752.59;4950249;29;20055;-40
2022/04/04 08:47:41;;;;;;;7.57;4.73;;;2.50;56.80;;;2.61;51.75;97755.72;4948228;29;20359;-40
2022/04/04 08:50:11;;;;;;;7.80;5.00;;;2.60;57.70;;;2.67;51.48;97749.19;4940226;29;20050;-40
2022/04/04 08:52:39;;;;;;;8.13;5.83;;;2.60;56.90;;;2.70;51.28;97751.59;4915318;29;20066;-41
2022/04/04 08:55:08;;;;;;;7.23;4.90;;;2.70;57.60;;;2.73;50.71;97743.47;4948475;29;20061;-40
2022/04/04 08:57:36;;;;;;;8.07;4.87;;;2.70;53.50;;;2.76;49.42;97744.09;4942506;29;20060;-40
2022/04/04 09:00:05;;;;;;;7.33;4.60;;;2.70;52.70;;;2.80;50.13;97742.09;4928644;29;20066;-46
2022/04/04 09:02:33;;;;;;;6.80;5.10;;;2.80;55.40;;;2.61;45.87;97733.84;4928872;29;20056;-43
2022/04/04 09:05:05;;;;;;;9.03;5.73;;;2.80;49.00;;;2.72;48.30;97733.94;4929181;29;20384;-44
2022/04/04 09:07:33;;;;;;;7.63;5.23;;;2.90;52.60;;;2.81;48.76;97729.78;4946475;29;20589;-45
2022/04/04 09:10:01;;;;;;;6.37;4.67;;;2.90;51.70;;;2.80;47.28;97736.84;4947321;29;20049;-45
2022/04/04 09:12:29;;;;;;;7.00;5.13;;;2.90;51.10;;;2.90;47.73;97721.22;4947264;28;20591;-45
2022/04/04 09:14:58;;;;;;;7.83;4.57;;;3.00;51.50;;;2.88;47.14;97720.50;4947250;28;20051;-45
2022/04/04 09:17:30;;;;;;;5.80;4.20;;;3.00;49.00;;;2.80;44.46;97728.94;4947659;28;20364;-47
2022/04/04 09:20:03;;;;;;;5.53;4.20;;;3.00;46.90;;;2.88;46.38;97713.44;4947904;29;20051;-48
2022/04/04 09:22:31;;;;;;;5.57;4.17;;;3.00;50.20;;;2.77;44.87;97710.75;4948640;29;20043;-46
2022/04/04 09:25:02;;;;;;;6.63;4.33;;;3.00;48.10;;;2.91;46.53;97718.50;4948065;29;20615;-46
2022/04/04 09:27:36;;;;;;;7.93;4.83;;;3.10;50.00;;;3.04;46.81;97704.44;4949240;29;20065;-45
2022/04/04 09:30:19;;;;;;;5.82;4.50;;;3.20;49.60;;;3.07;47.45;97701.59;4947377;29;20059;-47
2022/04/04 09:32:49;;;;;;;7.23;4.30;;;3.20;49.90;;;3.17;47.38;97691.25;4945888;29;20047;-46
2022/04/04 09:35:18;;;;;;;6.37;5.13;;;3.30;51.40;;;3.13;45.65;97690.63;4947583;28;20073;-45
2022/04/04 09:37:49;;;;;;;5.87;4.10;;;3.30;48.10;;;3.22;45.98;97678.56;4952343;29;20079;-44
2022/04/04 09:40:25;;;;;;;4.70;3.87;;;3.40;49.40;;;3.26;45.56;97678.22;4951835;28;20055;-46
2022/04/04 09:42:53;;;;;;;7.90;5.43;;;3.40;48.90;;;3.26;46.10;97678.22;4949337;29;20058;-45
2022/04/04 09:45:29;;;;;;;5.43;4.17;;;3.40;50.00;;;3.35;46.10;97681.94;4930557;29;20052;-45
2022/04/04 09:48:03;;;;;;;8.97;4.83;;;3.40;49.80;;;3.41;46.50;97670.97;4930868;29;20086;-44
2022/04/04 09:50:48;;;;;;;6.60;4.85;;;3.50;49.50;;;3.37;44.17;97679.22;4915788;29;20753;-46
2022/04/04 09:53:23;;;;;;;6.67;4.27;;;3.50;48.10;;;3.32;44.93;97671.69;4928309;29;20059;-45
2022/04/04 09:56:00;;;;;;;6.40;5.10;;;3.50;47.80;;;3.37;44.27;97668.69;4930942;29;20062;-47
2022/04/04 09:58:31;;;;;;;5.13;4.30;;;3.50;48.00;;;3.43;44.95;97655.91;4931183;29;20249;-45
2022/04/04 10:01:00;;;;;;;7.70;5.33;;;3.50;48.50;;;3.39;45.61;97648.34;4930932;29;20059;-44
2022/04/04 10:03:31;;;;;;;8.30;4.90;;;3.60;48.80;;;3.42;45.71;97659.50;4931046;29;20054;-46
2022/04/04 10:06:08;;;;;;;6.33;4.87;;;3.60;48.80;;;3.47;45.31;97649.47;4932719;29;20055;-44
2022/04/04 10:08:39;;;;;;;5.47;4.03;;;3.60;48.60;;;3.48;45.29;97655.56;4931667;29;20052;-46
2022/04/04 10:11:09;;;;;;;5.30;4.03;;;3.60;48.90;;;3.41;44.95;97646.44;4914198;29;20051;-44
2022/04/04 10:13:37;;;;;;;5.30;4.30;;;3.60;47.70;;;3.54;45.71;97649.81;4929712;29;20063;-47
2022/04/04 10:16:05;;;;;;;5.50;3.90;;;3.60;48.70;;;3.57;45.56;97635.56;4931766;29;20064;-46
2022/04/04 10:18:35;;;;;;;5.50;3.60;;;3.70;49.00;;;3.50;44.18;97630.78;4930701;29;20529;-46
2022/04/04 10:21:04;;;;;;;6.27;3.97;;;3.70;47.40;;;3.58;45.19;97646.00;4930626;29;20569;-47
2022/04/04 10:23:33;;;;;;;4.27;3.83;;;3.80;48.10;;;3.76;46.25;97633.19;4913266;29;20073;-46
2022/04/04 10:26:02;;;;;;;6.27;4.37;;;3.90;50.10;;;3.58;44.94;97627.56;4930876;29;20059;-45
2022/04/04 10:28:38;;;;;;;6.37;4.67;;;3.90;48.20;;;3.54;44.21;97626.13;4913912;29;20066;-47
2022/04/04 10:31:26;;;;;;;6.33;4.53;;;3.90;47.30;;;3.62;44.97;97620.28;4929912;29;20078;-47
2022/04/04 10:34:09;;;;;;;5.73;4.27;;;3.90;48.80;;;3.58;45.11;97622.31;4928630;29;20115;-46
2022/04/04 10:36:37;;;;;;;7.87;5.03;;;3.90;47.90;;;3.66;45.65;97611.19;4930126;29;20345;-48
2022/04/04 10:39:04;;;;;;;7.07;4.83;;;3.90;49.00;;;3.61;44.69;97611.56;4931003;29;20066;-46
2022/04/04 10:41:32;;;;;;;9.07;5.40;;;3.90;47.90;;;3.68;46.14;97601.38;4929228;29;20071;-47